Time;durP1;ratioP1;P1;durP2;ratioP2;P2;SDS_P1;SDS_P2;PMS_P1;PMS_P2;Temp;Humidity;BMP_temperature;BMP_pressure;BME280_temperature;BME280_humidity;BME280_pressure;Samples;Min_cycle;Max_cycle;Signal;HPM_P1;HPM_P2
2022/04/17 00:01:14;;;;;;;2.40;2.07;;;8.80;89.00;;;;;;5004798;28;20281;-67
2022/04/17 00:03:42;;;;;;;2.80;2.20;;;8.70;89.20;;;;;;5008704;28;20383;-70
2022/04/17 00:06:17;;;;;;;2.40;2.20;;;8.70;89.60;;;;;;5009139;28;20202;-70
2022/04/17 00:08:44;;;;;;;2.63;2.33;;;8.70;90.20;;;;;;5008297;28;20209;-70
2022/04/17 00:11:17;;;;;;;2.37;2.17;;;8.70;90.40;;;;;;5009345;28;20236;-69
2022/04/17 00:13:44;;;;;;;2.67;2.47;;;8.70;90.50;;;;;;5009529;28;20280;-69
2022/04/17 00:16:20;;;;;;;2.17;2.00;;;8.70;90.30;;;;;;5009438;28;20212;-69
2022/04/17 00:18:48;;;;;;;2.43;2.33;;;8.60;90.40;;;;;;5009473;28;20208;-70
2022/04/17 00:21:18;;;;;;;2.50;2.30;;;8.60;90.30;;;;;;5008416;28;20260;-69
2022/04/17 00:23:44;;;;;;;2.43;2.07;;;8.60;90.30;;;;;;4992577;28;20199;-69
2022/04/17 00:26:19;;;;;;;2.40;2.20;;;8.60;90.30;;;;;;4994335;28;20202;-70
2022/04/17 00:28:45;;;;;;;2.10;2.00;;;8.60;90.50;;;;;;5006543;28;20461;-70
2022/04/17 00:31:12;;;;;;;2.67;2.10;;;8.50;90.30;;;;;;5007952;28;20276;-70
2022/04/17 00:33:38;;;;;;;2.57;1.90;;;8.40;90.30;;;;;;5009353;28;20276;-70
2022/04/17 00:36:21;;;;;;;2.47;2.27;;;8.40;90.40;;;;;;5007916;28;20209;-70
2022/04/17 00:38:48;;;;;;;2.37;2.17;;;8.50;90.60;;;;;;4997814;28;20268;-70
2022/04/17 00:41:15;;;;;;;2.53;1.93;;;8.40;90.30;;;;;;5008593;28;20812;-69
2022/04/17 00:43:45;;;;;;;2.43;2.23;;;8.40;90.50;;;;;;5006279;28;20264;-69
2022/04/17 00:46:15;;;;;;;2.77;2.30;;;8.40;90.60;;;;;;5005288;28;20232;-69
2022/04/17 00:48:42;;;;;;;2.30;2.10;;;8.40;90.80;;;;;;5008402;28;20209;-70
2022/04/17 00:51:16;;;;;;;2.20;2.00;;;8.40;91.00;;;;;;5008232;28;20803;-66
2022/04/17 00:53:46;;;;;;;3.17;2.23;;;8.40;91.20;;;;;;4997870;28;20216;-69
2022/04/17 00:56:17;;;;;;;2.60;2.20;;;8.40;91.50;;;;;;5007187;28;20687;-68
2022/04/17 00:58:44;;;;;;;4.43;2.27;;;8.30;91.40;;;;;;5006422;28;20205;-68
2022/04/17 01:01:17;;;;;;;2.20;2.00;;;8.20;91.40;;;;;;5008532;28;20304;-68
2022/04/17 01:03:43;;;;;;;2.40;2.20;;;8.10;91.70;;;;;;5008584;28;20362;-68
2022/04/17 01:06:19;;;;;;;2.10;2.00;;;8.10;91.90;;;;;;5002370;28;20719;-68
2022/04/17 01:08:47;;;;;;;2.30;2.13;;;8.10;91.90;;;;;;4993452;28;20220;-70
2022/04/17 01:11:17;;;;;;;1.90;1.80;;;8.10;91.90;;;;;;5008433;28;20299;-70
2022/04/17 01:13:44;;;;;;;2.40;2.20;;;8.10;92.10;;;;;;5008455;28;20209;-70
2022/04/17 01:16:16;;;;;;;4.10;2.37;;;8.10;91.90;;;;;;5008222;28;20291;-70
2022/04/17 01:18:57;;;;;;;3.47;2.23;;;8.10;92.00;;;;;;5000734;28;20233;-69
2022/04/17 01:21:25;;;;;;;2.50;2.30;;;7.90;92.10;;;;;;4998792;28;20212;-68
2022/04/17 01:29:21;;;;;;;2.60;2.17;;;7.90;91.90;;;;;;4994091;28;20658;-67
2022/04/17 01:31:47;;;;;;;1.93;1.83;;;7.80;91.90;;;;;;5007591;28;20249;-67
2022/04/17 01:34:15;;;;;;;2.20;2.10;;;7.80;91.90;;;;;;5007996;28;20240;-67
2022/04/17 01:36:44;;;;;;;2.40;2.20;;;7.70;92.00;;;;;;5007930;28;20280;-68
2022/04/17 01:39:11;;;;;;;2.37;2.10;;;7.70;92.30;;;;;;4991674;28;20328;-68
2022/04/17 01:41:38;;;;;;;2.03;1.93;;;7.70;92.50;;;;;;5006745;28;20444;-67
2022/04/17 01:44:05;;;;;;;2.20;2.10;;;7.70;92.60;;;;;;4999067;28;20213;-67
2022/04/17 01:46:32;;;;;;;2.37;2.17;;;7.60;92.60;;;;;;5007444;28;20209;-67
2022/04/17 01:48:59;;;;;;;2.23;2.10;;;7.50;92.70;;;;;;5004519;28;20260;-69
2022/04/17 01:51:25;;;;;;;2.23;2.13;;;7.50;92.80;;;;;;5006083;28;20241;-68
2022/04/17 01:53:53;;;;;;;2.03;1.93;;;7.50;92.90;;;;;;5004946;28;20210;-69
2022/04/17 01:56:20;;;;;;;2.40;2.17;;;7.50;93.10;;;;;;5003043;28;20653;-69
2022/04/17 01:58:47;;;;;;;2.30;2.10;;;7.50;93.40;;;;;;5007876;28;20264;-69
2022/04/17 02:01:14;;;;;;;2.20;2.00;;;7.50;93.70;;;;;;4997650;28;21083;-69
2022/04/17 02:03:41;;;;;;;2.70;2.10;;;7.40;94.00;;;;;;5004623;28;20255;-69
2022/04/17 02:06:10;;;;;;;2.17;2.03;;;7.40;94.30;;;;;;5007416;28;20611;-69
2022/04/17 02:08:37;;;;;;;2.20;2.10;;;7.40;94.50;;;;;;5007287;28;20216;-66
2022/04/17 02:11:13;;;;;;;2.20;2.10;;;7.40;94.40;;;;;;5007187;28;20664;-66
2022/04/17 02:13:40;;;;;;;2.37;2.20;;;7.30;94.30;;;;;;5006506;28;20197;-67
2022/04/17 02:16:10;;;;;;;2.13;2.00;;;7.20;94.20;;;;;;5000432;28;20407;-68
2022/04/17 02:18:36;;;;;;;2.13;2.00;;;7.20;94.30;;;;;;4998538;28;20604;-66
2022/04/17 02:21:13;;;;;;;2.53;2.33;;;7.10;94.40;;;;;;5007846;28;20198;-65
2022/04/17 02:23:41;;;;;;;2.17;2.07;;;7.10;94.40;;;;;;5003095;28;20219;-66
2022/04/17 02:26:17;;;;;;;2.10;2.00;;;7.10;94.40;;;;;;5010387;28;20288;-65
2022/04/17 02:28:43;;;;;;;2.87;2.10;;;7.10;94.50;;;;;;5011649;28;20217;-65
2022/04/17 02:31:19;;;;;;;2.27;2.17;;;7.10;94.50;;;;;;4999082;28;20210;-66
2022/04/17 02:33:45;;;;;;;2.60;2.40;;;7.00;94.60;;;;;;5005061;28;20205;-66
2022/04/17 02:36:28;;;;;;;2.57;2.37;;;7.00;94.80;;;;;;5003126;28;20661;-65
2022/04/17 02:38:55;;;;;;;2.53;2.33;;;7.00;94.80;;;;;;5010802;28;20263;-65
2022/04/17 02:41:26;;;;;;;2.53;2.33;;;6.90;94.80;;;;;;5011222;28;20222;-65
2022/04/17 02:43:53;;;;;;;2.50;2.30;;;6.80;94.90;;;;;;5011558;28;20190;-65
2022/04/17 02:49:00;;;;;;;2.43;2.23;;;6.80;95.20;;;;;;5003760;28;20209;-65
2022/04/17 02:51:27;;;;;;;2.77;2.30;;;6.80;95.40;;;;;;5006605;28;20242;-66
2022/04/17 02:53:53;;;;;;;2.43;2.23;;;6.80;95.30;;;;;;5003137;28;20229;-66
2022/04/17 02:56:20;;;;;;;2.80;2.47;;;6.80;95.40;;;;;;5010748;28;20214;-66
2022/04/17 02:58:50;;;;;;;2.37;2.23;;;6.80;95.60;;;;;;5010537;28;20209;-66
2022/04/17 03:06:49;;;;;;;2.77;2.50;;;6.50;95.60;;;;;;4987731;28;20589;-68
2022/04/17 03:09:16;;;;;;;2.90;2.67;;;6.40;95.80;;;;;;5008120;28;20213;-69
2022/04/17 03:11:42;;;;;;;2.90;2.70;;;6.20;96.00;;;;;;5010759;28;20774;-68
2022/04/17 03:14:10;;;;;;;2.80;2.60;;;6.30;96.10;;;;;;4999459;28;20256;-68
2022/04/17 03:16:37;;;;;;;2.90;2.70;;;6.30;96.10;;;;;;5010908;28;20209;-68
2022/04/17 03:19:03;;;;;;;3.70;2.60;;;6.40;96.10;;;;;;5004205;28;20263;-68
2022/04/17 03:21:31;;;;;;;3.07;2.80;;;6.30;96.10;;;;;;5009609;28;20217;-68
2022/04/17 03:23:57;;;;;;;3.13;2.83;;;6.30;96.10;;;;;;5009594;28;20216;-68
2022/04/17 03:26:24;;;;;;;4.43;4.03;;;6.30;95.90;;;;;;5000761;28;20272;-68
2022/04/17 03:28:54;;;;;;;3.90;3.60;;;6.30;96.00;;;;;;5010287;28;20283;-68
2022/04/17 03:31:22;;;;;;;3.17;2.97;;;6.20;95.80;;;;;;5009976;28;20210;-68
2022/04/17 03:33:48;;;;;;;3.57;3.17;;;6.30;95.90;;;;;;5010780;28;20272;-68
2022/04/17 03:36:24;;;;;;;3.10;2.90;;;6.30;95.80;;;;;;5009836;28;20806;-68
2022/04/17 03:38:51;;;;;;;3.30;3.10;;;6.20;95.90;;;;;;5009571;28;20209;-67
2022/04/17 03:41:19;;;;;;;3.47;3.17;;;6.00;96.10;;;;;;4997033;28;20228;-67
2022/04/17 03:43:46;;;;;;;3.03;2.80;;;6.00;96.30;;;;;;4998459;28;20767;-67
2022/04/17 03:46:33;;;;;;;3.23;3.03;;;6.00;96.60;;;;;;5001607;28;20209;-67
2022/04/17 03:49:00;;;;;;;2.87;2.67;;;6.10;96.60;;;;;;5009294;28;20216;-67
2022/04/17 03:51:26;;;;;;;3.03;2.83;;;6.10;96.50;;;;;;5007719;28;20241;-67
2022/04/17 03:53:53;;;;;;;3.03;2.77;;;5.90;96.60;;;;;;5006359;28;20210;-66
2022/04/17 03:56:26;;;;;;;4.70;3.10;;;5.70;96.70;;;;;;4996269;28;20198;-70
2022/04/17 03:58:52;;;;;;;3.00;2.80;;;5.60;96.90;;;;;;4999472;28;20259;-70
2022/04/17 04:01:26;;;;;;;2.90;2.50;;;5.50;96.70;;;;;;5008413;28;20209;-70
2022/04/17 04:03:54;;;;;;;2.97;2.67;;;5.50;96.60;;;;;;5006258;28;20253;-70
2022/04/17 04:06:27;;;;;;;3.30;3.10;;;5.50;96.60;;;;;;5001021;28;20204;-70
2022/04/17 04:08:54;;;;;;;3.37;3.17;;;5.60;96.60;;;;;;5009832;28;20256;-70
2022/04/17 04:11:21;;;;;;;2.60;2.40;;;5.60;96.60;;;;;;5007763;28;20706;-67
2022/04/17 04:13:47;;;;;;;3.00;2.67;;;5.60;96.50;;;;;;5009296;28;20292;-67
2022/04/17 04:16:24;;;;;;;3.20;2.93;;;5.60;96.50;;;;;;5005563;28;20704;-68
2022/04/17 04:18:50;;;;;;;3.07;2.87;;;5.40;96.70;;;;;;4993446;28;20201;-67
2022/04/17 04:21:21;;;;;;;2.70;2.50;;;5.60;97.00;;;;;;5005225;28;20201;-66
2022/04/17 04:23:48;;;;;;;3.37;3.07;;;5.60;97.00;;;;;;4998900;28;20214;-66
2022/04/17 04:26:21;;;;;;;3.03;2.83;;;5.60;97.00;;;;;;4991779;28;20202;-66
2022/04/17 04:28:46;;;;;;;2.90;2.70;;;5.60;97.00;;;;;;5004274;28;20706;-67
2022/04/17 04:31:31;;;;;;;3.37;2.83;;;5.50;97.00;;;;;;5009005;28;20205;-67
2022/04/17 04:33:58;;;;;;;2.97;2.60;;;5.50;97.20;;;;;;5002979;28;20236;-67
2022/04/17 04:36:29;;;;;;;3.20;2.83;;;5.50;97.30;;;;;;5002411;28;20576;-67
2022/04/17 04:38:55;;;;;;;3.87;2.90;;;5.40;97.40;;;;;;5008065;28;20206;-67
2022/04/17 04:41:27;;;;;;;2.90;2.70;;;5.40;97.20;;;;;;5008826;28;20230;-67
2022/04/17 04:43:54;;;;;;;3.20;2.90;;;5.40;97.50;;;;;;5009538;28;20314;-68
2022/04/17 04:46:25;;;;;;;3.33;3.00;;;5.40;97.60;;;;;;5007784;28;20201;-68
2022/04/17 04:51:38;;;;;;;4.13;3.73;;;5.40;97.70;;;;;;5006537;28;20376;-68
2022/04/17 04:54:07;;;;;;;3.20;3.00;;;5.40;97.80;;;;;;5001870;28;20707;-68
2022/04/17 04:56:34;;;;;;;3.37;3.00;;;5.50;98.00;;;;;;5000533;28;20248;-68
2022/04/17 04:59:01;;;;;;;3.73;3.43;;;5.60;98.10;;;;;;4992398;28;20202;-68
2022/04/17 05:01:27;;;;;;;3.67;3.37;;;5.60;98.10;;;;;;5009106;28;20284;-68
2022/04/17 05:03:54;;;;;;;4.23;3.83;;;5.60;98.10;;;;;;5008572;28;20213;-68
2022/04/17 05:06:34;;;;;;;5.07;3.80;;;5.70;98.20;;;;;;5007415;28;20323;-68
2022/04/17 05:09:02;;;;;;;4.60;4.20;;;5.70;98.20;;;;;;5000929;28;20576;-68
2022/04/17 05:11:34;;;;;;;4.97;4.30;;;5.70;98.30;;;;;;5008692;28;20205;-68
2022/04/17 05:14:01;;;;;;;4.23;3.93;;;5.80;98.40;;;;;;5007934;28;20285;-68
2022/04/17 05:16:28;;;;;;;4.40;4.03;;;5.90;98.40;;;;;;5008200;28;20202;-68
2022/04/17 05:19:19;;;;;;;4.87;4.17;;;5.90;98.20;;;;;;5008975;28;20291;-68
2022/04/17 05:21:41;;;;;;;4.80;4.40;;;5.90;98.10;;;;;;4998702;28;20394;-68
2022/04/17 05:24:09;;;;;;;4.37;3.97;;;5.70;98.10;;;;;;5005077;28;20212;-68
2022/04/17 05:26:37;;;;;;;5.50;4.73;;;5.70;98.20;;;;;;5006939;28;20206;-67
2022/04/17 05:29:03;;;;;;;5.03;4.63;;;5.80;98.30;;;;;;5008075;28;20218;-68
2022/04/17 05:31:30;;;;;;;4.73;4.30;;;5.80;98.20;;;;;;5008060;28;20296;-68
2022/04/17 05:33:57;;;;;;;4.87;4.37;;;5.90;98.20;;;;;;5007010;28;20788;-68
2022/04/17 05:36:24;;;;;;;5.63;4.40;;;5.80;98.00;;;;;;5007165;28;20291;-69
2022/04/17 05:38:53;;;;;;;5.17;4.60;;;5.90;98.10;;;;;;5007792;28;20201;-68
2022/04/17 05:41:30;;;;;;;3.70;3.40;;;5.80;97.90;;;;;;5008281;28;20237;-67
2022/04/17 05:43:58;;;;;;;4.37;4.07;;;5.50;97.70;;;;;;5007187;28;20205;-67
2022/04/17 05:46:26;;;;;;;4.60;4.20;;;5.60;98.20;;;;;;4995807;28;20214;-67
2022/04/17 05:48:52;;;;;;;4.40;4.00;;;5.70;98.20;;;;;;5008445;28;20241;-67
2022/04/17 05:51:44;;;;;;;4.37;4.00;;;5.80;98.20;;;;;;5007456;28;20229;-67
2022/04/17 05:54:10;;;;;;;4.10;3.73;;;5.90;98.20;;;;;;4993721;28;20237;-67
2022/04/17 05:56:38;;;;;;;4.70;3.53;;;5.90;99.00;;;;;;5007866;28;20250;-68
2022/04/17 05:59:06;;;;;;;4.43;3.83;;;6.20;99.30;;;;;;4998418;28;20622;-68
2022/04/17 06:01:32;;;;;;;4.30;4.00;;;6.30;99.20;;;;;;4997038;28;20202;-68
2022/04/17 06:04:01;;;;;;;4.00;3.70;;;6.50;98.90;;;;;;5005140;28;20267;-68
2022/04/17 06:06:29;;;;;;;4.43;4.03;;;6.60;98.60;;;;;;5004377;28;20202;-68
2022/04/17 06:08:55;;;;;;;5.17;3.83;;;6.70;98.50;;;;;;4994634;28;20209;-68
2022/04/17 06:11:28;;;;;;;3.93;3.63;;;6.70;98.20;;;;;;4996821;28;20205;-68
2022/04/17 06:13:56;;;;;;;4.40;4.00;;;6.80;98.30;;;;;;5007629;28;20654;-68
2022/04/17 06:16:29;;;;;;;5.00;4.60;;;6.80;98.20;;;;;;5006155;28;20201;-68
2022/04/17 06:18:56;;;;;;;4.63;4.20;;;6.80;98.00;;;;;;4996769;28;20636;-68
2022/04/17 06:21:22;;;;;;;4.63;4.23;;;6.60;98.00;;;;;;5005857;28;20206;-68
2022/04/17 06:23:49;;;;;;;4.80;4.30;;;6.70;98.40;;;;;;4999237;28;20213;-76
2022/04/17 06:26:25;;;;;;;4.53;4.10;;;6.80;98.20;;;;;;5007208;28;20264;-76
2022/04/17 06:28:51;;;;;;;4.30;4.00;;;6.90;98.30;;;;;;4991421;28;20672;-76
2022/04/17 06:31:32;;;;;;;3.73;3.53;;;6.80;97.70;;;;;;5005773;28;20574;-75
2022/04/17 06:33:58;;;;;;;4.80;3.30;;;6.90;97.60;;;;;;5006063;28;20287;-75
2022/04/17 06:36:26;;;;;;;3.37;3.17;;;7.00;97.30;;;;;;5004237;28;20295;-80
2022/04/17 06:38:53;;;;;;;3.50;3.20;;;6.90;97.10;;;;;;5004831;28;20210;-77
2022/04/17 06:41:32;;;;;;;3.40;3.13;;;6.80;96.50;;;;;;5003119;28;20233;-77
2022/04/17 06:43:59;;;;;;;3.67;3.37;;;6.90;96.90;;;;;;5004603;28;20668;-77
2022/04/17 06:46:35;;;;;;;3.20;2.90;;;6.90;96.50;;;;;;5003401;28;20233;-77
2022/04/17 06:49:02;;;;;;;3.37;3.13;;;7.00;97.00;;;;;;5000742;28;20221;-76
2022/04/17 06:51:29;;;;;;;3.47;3.17;;;7.10;96.70;;;;;;5003933;28;20331;-76
2022/04/17 06:53:55;;;;;;;4.00;3.70;;;7.10;96.70;;;;;;4992063;28;20233;-75
2022/04/17 06:56:31;;;;;;;3.00;2.80;;;7.10;96.40;;;;;;5003254;28;20230;-75
2022/04/17 06:58:58;;;;;;;3.33;3.10;;;7.10;96.00;;;;;;5004257;28;20197;-75
2022/04/17 07:01:25;;;;;;;2.93;2.73;;;7.00;95.90;;;;;;4999895;28;20232;-79
2022/04/17 07:03:53;;;;;;;3.20;3.00;;;7.20;96.30;;;;;;4997461;28;20209;-79
2022/04/17 07:06:22;;;;;;;2.77;2.57;;;7.30;96.40;;;;;;5001394;28;20703;-78
2022/04/17 07:08:49;;;;;;;3.03;2.43;;;7.40;96.40;;;;;;5004120;28;20708;-76
2022/04/17 07:11:29;;;;;;;2.70;2.50;;;7.40;95.30;;;;;;5001275;28;20208;-74
2022/04/17 07:13:56;;;;;;;2.77;2.57;;;7.30;94.90;;;;;;5000447;28;20331;-75
2022/04/17 07:16:28;;;;;;;2.67;2.47;;;7.40;95.20;;;;;;5009045;28;20200;-76
2022/04/17 07:18:56;;;;;;;2.63;2.43;;;7.50;95.10;;;;;;5007918;28;20273;-75
2022/04/17 07:21:27;;;;;;;3.40;3.03;;;7.60;95.60;;;;;;5009771;28;20204;-74
2022/04/17 07:23:54;;;;;;;4.03;2.57;;;7.80;96.10;;;;;;5002506;28;20205;-76
2022/04/17 07:26:24;;;;;;;2.40;2.20;;;7.90;95.80;;;;;;4993698;28;20210;-76
2022/04/17 07:28:50;;;;;;;4.07;2.70;;;8.10;96.30;;;;;;5001719;28;20209;-74
2022/04/17 07:31:27;;;;;;;2.20;2.10;;;8.20;96.30;;;;;;4999682;28;20206;-76
2022/04/17 07:33:53;;;;;;;3.30;2.77;;;8.40;95.90;;;;;;5009964;28;20762;-76
2022/04/17 07:36:29;;;;;;;2.60;2.50;;;8.50;95.60;;;;;;5001350;28;20196;-77
2022/04/17 07:38:56;;;;;;;3.07;2.57;;;8.60;95.30;;;;;;4999508;28;20664;-77
2022/04/17 07:41:22;;;;;;;2.90;2.70;;;8.70;95.30;;;;;;5010995;28;20279;-76
2022/04/17 07:43:51;;;;;;;3.00;2.80;;;8.90;95.10;;;;;;5004285;28;20201;-76
2022/04/17 07:46:23;;;;;;;2.53;2.33;;;9.00;95.00;;;;;;4990850;28;20583;-76
2022/04/17 07:48:50;;;;;;;2.60;2.50;;;9.10;95.20;;;;;;5004996;28;20236;-76
2022/04/17 07:51:20;;;;;;;2.87;2.67;;;9.20;95.00;;;;;;5010026;28;20244;-76
2022/04/17 07:53:48;;;;;;;2.80;2.37;;;9.20;94.70;;;;;;5010576;28;20256;-76
2022/04/17 07:56:24;;;;;;;2.60;2.40;;;9.30;94.80;;;;;;5010431;28;20641;-76
2022/04/17 07:58:50;;;;;;;4.33;2.40;;;9.40;94.40;;;;;;4998094;28;20206;-76
2022/04/17 08:01:24;;;;;;;3.47;2.60;;;9.50;94.40;;;;;;4990838;28;20233;-76
2022/04/17 08:03:50;;;;;;;2.20;2.10;;;9.50;94.40;;;;;;4991096;28;20235;-76
2022/04/17 08:06:23;;;;;;;2.40;2.20;;;9.60;95.00;;;;;;4990803;28;20406;-76
2022/04/17 08:08:52;;;;;;;2.23;2.03;;;9.60;94.80;;;;;;4990650;28;20580;-76
2022/04/17 08:11:26;;;;;;;2.30;2.10;;;9.70;94.40;;;;;;4992090;28;20298;-76
2022/04/17 08:13:52;;;;;;;2.03;1.83;;;9.70;94.50;;;;;;4990706;28;20284;-76
2022/04/17 08:16:25;;;;;;;1.93;1.83;;;9.80;94.10;;;;;;4990561;28;20206;-76
2022/04/17 08:18:51;;;;;;;1.83;1.73;;;9.80;94.40;;;;;;4990641;28;20246;-75
2022/04/17 08:21:31;;;;;;;1.80;1.70;;;9.90;94.70;;;;;;5009898;28;20672;-76
2022/04/17 08:24:00;;;;;;;2.00;1.80;;;10.20;94.70;;;;;;5008968;28;20260;-76
2022/04/17 08:26:26;;;;;;;1.50;1.40;;;10.40;93.70;;;;;;5008790;28;20216;-76
2022/04/17 08:28:53;;;;;;;1.40;1.30;;;10.50;93.90;;;;;;5009746;28;20209;-76
2022/04/17 08:31:39;;;;;;;1.90;1.80;;;10.50;94.00;;;;;;5009648;28;20202;-76
2022/04/17 08:34:05;;;;;;;1.63;1.53;;;10.60;93.30;;;;;;4998751;28;20687;-76
2022/04/17 08:36:32;;;;;;;3.30;1.53;;;10.70;93.40;;;;;;5009858;28;20221;-76
2022/04/17 08:39:00;;;;;;;1.80;1.70;;;10.70;93.40;;;;;;5009438;28;20218;-76
2022/04/17 08:41:33;;;;;;;1.87;1.77;;;10.70;93.20;;;;;;5010074;28;20278;-76
2022/04/17 08:44:00;;;;;;;5.70;1.67;;;10.80;91.80;;;;;;5009689;28;20226;-76
2022/04/17 08:46:27;;;;;;;1.60;1.50;;;10.80;92.10;;;;;;5008922;28;20660;-75
2022/04/17 08:48:55;;;;;;;1.80;1.70;;;10.80;92.70;;;;;;5010022;28;20260;-76
2022/04/17 08:51:24;;;;;;;1.90;1.80;;;11.00;92.30;;;;;;5009366;28;20245;-75
2022/04/17 08:53:54;;;;;;;1.80;1.70;;;11.10;92.50;;;;;;5009330;28;20237;-75
2022/04/17 08:56:31;;;;;;;2.43;2.17;;;11.20;91.80;;;;;;5009346;28;20198;-77
2022/04/17 08:58:58;;;;;;;1.93;1.77;;;11.20;91.60;;;;;;4998453;28;20669;-75
2022/04/17 09:01:26;;;;;;;8.07;2.00;;;11.20;91.70;;;;;;4989872;28;20214;-76
2022/04/17 09:03:53;;;;;;;2.10;2.00;;;11.20;92.30;;;;;;4989811;28;20210;-76
2022/04/17 09:06:22;;;;;;;2.10;2.00;;;11.30;92.30;;;;;;5000040;28;20256;-75
2022/04/17 09:08:59;;;;;;;2.47;2.27;;;11.30;92.30;;;;;;5009009;28;20256;-76
2022/04/17 09:11:26;;;;;;;2.70;2.50;;;11.50;92.10;;;;;;4995159;28;20539;-75
2022/04/17 09:13:56;;;;;;;2.63;2.30;;;11.60;92.10;;;;;;4989595;28;20317;-75
2022/04/17 09:16:35;;;;;;;2.57;2.37;;;11.80;92.40;;;;;;4990066;28;20210;-76
2022/04/17 09:19:13;;;;;;;3.17;2.40;;;12.00;91.20;;;;;;4990843;28;20198;-75
2022/04/17 09:21:40;;;;;;;2.67;2.40;;;12.00;91.20;;;;;;4999468;28;20242;-75
2022/04/17 09:24:15;;;;;;;2.37;2.17;;;12.20;91.50;;;;;;4988946;28;20251;-76
2022/04/17 09:26:50;;;;;;;2.40;2.20;;;12.30;90.50;;;;;;4989514;28;20206;-76
2022/04/17 09:29:23;;;;;;;2.20;1.87;;;12.50;90.60;;;;;;4989529;28;20204;-76
2022/04/17 09:31:57;;;;;;;2.50;2.30;;;12.50;91.00;;;;;;4994427;28;20202;-76
2022/04/17 09:34:24;;;;;;;2.07;1.97;;;12.50;90.60;;;;;;5003527;28;20222;-77
2022/04/17 09:36:53;;;;;;;1.90;1.80;;;12.50;90.40;;;;;;5002041;28;20210;-76
2022/04/17 09:39:20;;;;;;;2.30;2.20;;;12.60;90.70;;;;;;5008596;28;20209;-75
2022/04/17 09:41:55;;;;;;;1.83;1.73;;;12.60;90.00;;;;;;5008817;28;20225;-77
2022/04/17 09:44:36;;;;;;;3.60;2.17;;;12.50;90.50;;;;;;5008428;28;20559;-76
2022/04/17 09:47:04;;;;;;;2.53;1.97;;;12.60;90.30;;;;;;4994072;28;20206;-76
2022/04/17 09:49:31;;;;;;;11.33;2.33;;;12.60;90.40;;;;;;4989094;28;20206;-76
2022/04/17 09:52:07;;;;;;;5.00;1.93;;;12.70;90.50;;;;;;5000631;28;20248;-76
2022/04/17 09:54:34;;;;;;;2.10;1.80;;;12.70;90.60;;;;;;5007086;28;20237;-76
2022/04/17 09:57:01;;;;;;;1.57;1.47;;;12.90;90.00;;;;;;5007623;28;20234;-76
2022/04/17 09:59:28;;;;;;;1.47;1.37;;;12.90;89.70;;;;;;5008764;28;20224;-76
2022/04/17 10:01:58;;;;;;;1.60;1.50;;;12.90;90.00;;;;;;5008781;28;20229;-76
2022/04/17 10:04:26;;;;;;;1.57;1.47;;;13.00;90.20;;;;;;5008587;28;20221;-76
2022/04/17 10:06:54;;;;;;;1.83;1.43;;;13.20;89.60;;;;;;4992549;28;20665;-76
2022/04/17 10:09:21;;;;;;;2.87;1.70;;;13.30;88.10;;;;;;5007581;28;20205;-76
2022/04/17 10:11:49;;;;;;;2.97;1.70;;;13.50;90.00;;;;;;5008453;28;20209;-76
2022/04/17 10:14:16;;;;;;;1.90;1.80;;;13.50;89.30;;;;;;5008388;28;20709;-76
2022/04/17 10:16:45;;;;;;;1.70;1.60;;;13.30;87.40;;;;;;5008298;28;20573;-76
2022/04/17 10:19:14;;;;;;;1.50;1.40;;;13.30;88.70;;;;;;4992733;28;20243;-76
2022/04/17 10:21:40;;;;;;;1.60;1.50;;;13.40;89.60;;;;;;5008120;28;20213;-76
2022/04/17 10:24:12;;;;;;;1.70;1.60;;;13.40;89.80;;;;;;5007950;28;20251;-76
2022/04/17 10:26:41;;;;;;;2.80;2.60;;;13.50;90.20;;;;;;5008429;28;20194;-76
2022/04/17 10:29:13;;;;;;;2.00;1.90;;;13.60;88.10;;;;;;5007071;28;20210;-76
2022/04/17 10:31:50;;;;;;;1.70;1.60;;;13.60;87.60;;;;;;5002484;28;20209;-76
2022/04/17 10:34:51;;;;;;;1.80;1.70;;;13.70;88.90;;;;;;5007879;28;20773;-76
2022/04/17 10:37:38;;;;;;;1.97;1.87;;;13.90;88.20;;;;;;5007814;28;20205;-76
2022/04/17 10:40:10;;;;;;;1.90;1.80;;;13.90;86.80;;;;;;5007251;28;20576;-77
2022/04/17 10:42:53;;;;;;;2.23;1.60;;;14.00;88.00;;;;;;5008198;28;20198;-76
2022/04/17 10:45:21;;;;;;;1.50;1.40;;;14.20;88.70;;;;;;5008730;28;20264;-76
2022/04/17 10:48:01;;;;;;;1.63;1.50;;;14.20;88.00;;;;;;5012166;28;20267;-76
2022/04/17 10:50:31;;;;;;;1.87;1.17;;;14.20;85.90;;;;;;5001320;28;20244;-76
2022/04/17 10:53:23;;;;;;;1.77;1.13;;;14.30;87.50;;;;;;4992124;28;20338;-76
2022/04/17 10:56:02;;;;;;;1.30;1.20;;;14.40;87.80;;;;;;4991905;28;20230;-76
2022/04/17 10:58:35;;;;;;;1.83;1.33;;;14.70;86.70;;;;;;5008239;28;20193;-76
2022/04/17 11:01:02;;;;;;;1.73;1.63;;;14.90;86.40;;;;;;5011708;28;20201;-76
2022/04/17 11:03:28;;;;;;;1.20;1.20;;;15.00;85.00;;;;;;5010798;28;20210;-76
2022/04/17 11:06:13;;;;;;;1.60;1.50;;;15.10;85.20;;;;;;4992331;28;20265;-77
2022/04/17 11:08:48;;;;;;;1.70;1.60;;;15.10;83.30;;;;;;4991777;28;20198;-76
2022/04/17 11:11:35;;;;;;;1.63;1.53;;;15.00;83.10;;;;;;4991626;28;20667;-76
2022/04/17 11:14:13;;;;;;;1.53;1.43;;;15.20;84.60;;;;;;5000936;28;20233;-76
2022/04/17 11:16:56;;;;;;;2.13;1.40;;;15.30;85.60;;;;;;5011330;28;20600;-76
2022/04/17 11:19:24;;;;;;;3.63;1.67;;;15.50;85.30;;;;;;5007811;28;20669;-75
2022/04/17 11:21:54;;;;;;;1.50;1.40;;;15.60;86.60;;;;;;5011090;28;20205;-76
2022/04/17 11:24:22;;;;;;;1.57;1.10;;;15.70;85.00;;;;;;5011118;28;20280;-76
2022/04/17 11:27:11;;;;;;;1.00;1.00;;;15.80;84.10;;;;;;5010698;28;20576;-76
2022/04/17 11:29:43;;;;;;;1.63;1.43;;;16.00;83.30;;;;;;5007165;28;20723;-75
2022/04/17 11:32:47;;;;;;;1.50;1.30;;;16.20;84.80;;;;;;4997022;28;20210;-76
2022/04/17 11:35:16;;;;;;;1.20;1.10;;;16.30;84.10;;;;;;5010326;28;20652;-76
2022/04/17 11:37:52;;;;;;;1.30;1.20;;;16.40;84.70;;;;;;5010037;28;20663;-76
2022/04/17 11:40:21;;;;;;;1.53;1.10;;;16.60;82.60;;;;;;5010426;28;20232;-76
2022/04/17 11:42:49;;;;;;;3.53;1.07;;;16.60;79.80;;;;;;4994232;28;20198;-76
2022/04/17 11:45:18;;;;;;;1.10;1.10;;;16.60;80.80;;;;;;5000130;28;20209;-75
2022/04/17 11:47:46;;;;;;;2.10;1.30;;;16.70;78.90;;;;;;5004425;28;20210;-75
2022/04/17 11:50:20;;;;;;;1.10;1.10;;;16.70;78.90;;;;;;5005441;28;20730;-75
2022/04/17 11:52:51;;;;;;;10.80;2.00;;;16.80;78.70;;;;;;5009655;28;20255;-76
2022/04/17 11:55:24;;;;;;;1.60;1.07;;;16.80;75.10;;;;;;5009040;28;20224;-68
2022/04/17 11:57:51;;;;;;;1.83;0.97;;;16.90;72.20;;;;;;5008528;28;20277;-70
2022/04/17 12:00:17;;;;;;;1.00;0.93;;;17.00;70.30;;;;;;5008893;28;20248;-70
2022/04/17 12:02:44;;;;;;;1.20;1.10;;;16.90;70.10;;;;;;5009206;28;20271;-70
2022/04/17 12:05:13;;;;;;;1.57;1.03;;;17.00;73.30;;;;;;5008372;28;20668;-69
2022/04/17 12:07:42;;;;;;;1.80;1.70;;;17.20;74.60;;;;;;5009972;28;20301;-69
2022/04/17 12:10:12;;;;;;;2.07;1.33;;;17.20;72.10;;;;;;5008271;28;20664;-69
2022/04/17 12:12:40;;;;;;;1.17;1.17;;;17.30;73.40;;;;;;5010009;28;20613;-69
2022/04/17 12:15:09;;;;;;;1.50;1.40;;;17.30;73.60;;;;;;5005358;28;20272;-69
2022/04/17 12:17:37;;;;;;;1.63;1.20;;;17.50;73.10;;;;;;5004476;28;20217;-69
2022/04/17 12:20:07;;;;;;;2.10;1.20;;;17.70;73.70;;;;;;5007435;28;20202;-71
2022/04/17 12:22:35;;;;;;;1.80;1.23;;;17.90;71.40;;;;;;5008150;28;20221;-71
2022/04/17 12:25:01;;;;;;;1.87;1.10;;;18.00;70.20;;;;;;5007738;28;20205;-70
2022/04/17 12:27:30;;;;;;;1.40;1.20;;;18.00;72.00;;;;;;5007749;28;20260;-70
2022/04/17 12:29:57;;;;;;;1.00;1.00;;;18.00;70.60;;;;;;5007319;28;20209;-70
2022/04/17 12:32:26;;;;;;;1.40;1.30;;;17.90;71.40;;;;;;5005490;28;20579;-70
2022/04/17 12:35:00;;;;;;;1.10;1.10;;;18.00;74.40;;;;;;5006545;28;20712;-70
2022/04/17 12:37:29;;;;;;;1.60;1.50;;;18.10;74.50;;;;;;4987344;28;20757;-70
2022/04/17 12:40:10;;;;;;;1.50;1.40;;;18.20;75.90;;;;;;4987380;28;20604;-70
2022/04/17 12:42:39;;;;;;;1.40;1.30;;;18.20;75.90;;;;;;4987769;28;20203;-70
2022/04/17 12:45:06;;;;;;;3.27;1.43;;;18.30;73.90;;;;;;4987022;28;20218;-69
2022/04/17 12:47:36;;;;;;;3.20;1.33;;;18.50;72.90;;;;;;4999552;28;20279;-69
2022/04/17 12:50:04;;;;;;;1.23;1.13;;;18.50;74.70;;;;;;5006413;28;20205;-70
2022/04/17 12:52:31;;;;;;;1.00;1.00;;;18.50;73.10;;;;;;5007145;28;20209;-69
2022/04/17 12:55:06;;;;;;;1.57;1.47;;;18.50;70.50;;;;;;5000055;28;20229;-69
2022/04/17 12:57:32;;;;;;;1.70;0.93;;;18.60;72.00;;;;;;4994406;28;20259;-69
2022/04/17 13:00:00;;;;;;;1.93;1.40;;;18.60;71.80;;;;;;4996269;28;20248;-70
2022/04/17 13:02:28;;;;;;;1.40;1.30;;;18.70;70.50;;;;;;5006549;28;20884;-70
2022/04/17 13:04:56;;;;;;;1.93;1.10;;;18.80;71.30;;;;;;5006980;28;20217;-70
2022/04/17 13:07:23;;;;;;;1.57;1.47;;;18.80;71.70;;;;;;5006253;28;20205;-68
2022/04/17 13:09:51;;;;;;;1.60;1.50;;;18.80;71.20;;;;;;5005321;28;20209;-68
2022/04/17 13:12:31;;;;;;;1.67;1.40;;;18.80;72.30;;;;;;5006518;28;20209;-68
2022/04/17 13:14:59;;;;;;;1.40;1.30;;;18.90;71.40;;;;;;4994435;28;20233;-68
2022/04/17 13:17:27;;;;;;;2.40;1.53;;;19.00;72.30;;;;;;5007161;28;20263;-68
2022/04/17 13:19:54;;;;;;;1.40;1.30;;;19.10;72.80;;;;;;5006717;28;20292;-68
2022/04/17 13:22:39;;;;;;;1.53;1.43;;;19.10;71.20;;;;;;5006835;28;20213;-68
2022/04/17 13:25:07;;;;;;;1.53;1.20;;;19.20;70.40;;;;;;5006459;28;20232;-68